Time;durP1;ratioP1;P1;durP2;ratioP2;P2;SDS_P1;SDS_P2;PMS_P1;PMS_P2;Temp;Humidity;BMP_temperature;BMP_pressure;BME280_temperature;BME280_humidity;BME280_pressure;Samples;Min_cycle;Max_cycle;Signal;HPM_P1;HPM_P2
2023/10/16 04:08:10;;;;;;;0.40;0.40;;;2.10;99.90;;;;;;5096845;28;20222;-61
2023/10/16 04:10:39;;;;;;;0.40;0.40;;;2.00;99.90;;;;;;5096725;28;20563;-61
2023/10/16 04:13:05;;;;;;;0.30;0.30;;;2.10;99.90;;;;;;5096213;28;20804;-61
2023/10/16 04:18:28;;;;;;;0.40;0.40;;;2.00;99.90;;;;;;5096512;28;20191;-61
2023/10/16 04:47:42;;;;;;;0.40;0.40;;;2.00;99.90;;;;;;5095239;28;20179;-61
2023/10/16 04:50:09;;;;;;;0.30;0.30;;;1.90;99.90;;;;;;5096169;28;20172;-61
2023/10/16 04:53:06;;;;;;;0.30;0.30;;;1.90;99.90;;;;;;5095712;28;20489;-61
2023/10/16 04:55:53;;;;;;;0.47;0.47;;;1.90;99.90;;;;;;5095014;28;20203;-60
2023/10/16 05:11:27;;;;;;;0.40;0.40;;;1.80;99.90;;;;;;5095439;28;20160;-61
2023/10/16 06:16:21;;;;;;;0.40;0.40;;;2.20;99.90;;;;;;5079714;28;20214;-62
2023/10/16 06:18:48;;;;;;;0.53;0.53;;;2.20;99.90;;;;;;5084257;28;20172;-62
2023/10/16 06:21:14;;;;;;;0.77;0.77;;;2.30;99.90;;;;;;5083988;28;20165;-61
2023/10/16 06:23:49;;;;;;;0.35;0.35;;;2.40;99.90;;;;;;5081672;28;20164;-64
2023/10/16 06:26:15;;;;;;;0.30;0.30;;;2.60;99.90;;;;;;5088611;28;20183;-63
2023/10/16 06:28:49;;;;;;;0.38;0.38;;;2.70;99.90;;;;;;5087191;28;20222;-61
2023/10/16 06:31:23;;;;;;;0.40;0.40;;;2.90;99.90;;;;;;5082546;28;20566;-62
2023/10/16 06:33:53;;;;;;;0.50;0.50;;;3.00;99.90;;;;;;5056438;28;20195;-63
2023/10/16 06:36:24;;;;;;;0.30;0.30;;;3.20;99.90;;;;;;5073555;28;20275;-65
2023/10/16 06:38:55;;;;;;;0.40;0.40;;;3.30;99.90;;;;;;5073848;28;20164;-64
2023/10/16 06:41:22;;;;;;;0.50;0.50;;;3.40;99.90;;;;;;5083427;28;20196;-64
2023/10/16 06:43:49;;;;;;;0.40;0.40;;;3.40;99.90;;;;;;5089540;28;20184;-64
2023/10/16 06:46:22;;;;;;;0.38;0.38;;;3.60;99.90;;;;;;5090359;28;20195;-63
2023/10/16 06:48:51;;;;;;;0.30;0.30;;;3.60;99.90;;;;;;5075829;28;20169;-66
2023/10/16 06:51:18;;;;;;;0.50;0.50;;;3.60;99.90;;;;;;5078205;28;20293;-66
2023/10/16 06:53:44;;;;;;;0.30;0.30;;;3.70;99.90;;;;;;5086639;28;20639;-61
2023/10/16 06:56:14;;;;;;;0.40;0.40;;;3.70;99.90;;;;;;5080346;28;20203;-63
2023/10/16 06:58:40;;;;;;;0.32;0.32;;;3.70;99.90;;;;;;5076261;28;20630;-61
2023/10/16 07:01:06;;;;;;;0.47;0.47;;;3.80;99.90;;;;;;5093120;28;20172;-62
2023/10/16 07:03:33;;;;;;;0.30;0.30;;;3.80;99.90;;;;;;5073742;28;20206;-62
2023/10/16 07:05:59;;;;;;;0.40;0.40;;;3.90;99.90;;;;;;5073458;28;20315;-62
2023/10/16 07:08:25;;;;;;;0.77;0.77;;;4.00;99.90;;;;;;5079722;28;20573;-61
2023/10/16 07:11:03;;;;;;;0.30;0.30;;;4.20;99.90;;;;;;5092677;28;20170;-63
2023/10/16 07:13:31;;;;;;;0.30;0.30;;;4.70;99.90;;;;;;5078811;28;20168;-62
2023/10/16 07:16:02;;;;;;;0.30;0.30;;;4.90;99.90;;;;;;5072709;28;20213;-63
2023/10/16 07:18:31;;;;;;;0.30;0.30;;;5.10;99.90;;;;;;5073309;28;20208;-61
2023/10/16 07:21:00;;;;;;;0.35;0.35;;;5.30;99.90;;;;;;5073331;28;20231;-63
2023/10/16 07:23:34;;;;;;;0.35;0.35;;;5.40;99.90;;;;;;5073267;28;20195;-61
2023/10/16 07:26:07;;;;;;;0.30;0.30;;;5.30;99.90;;;;;;5090262;28;20190;-62
2023/10/16 07:28:33;;;;;;;0.40;0.40;;;5.40;99.90;;;;;;5093314;28;20270;-62
2023/10/16 07:31:02;;;;;;;0.30;0.30;;;5.40;99.90;;;;;;5093389;28;20210;-63
2023/10/16 07:33:28;;;;;;;0.40;0.40;;;5.40;99.90;;;;;;5093419;28;20182;-62
2023/10/16 07:35:56;;;;;;;0.30;0.30;;;5.50;99.90;;;;;;5092795;28;20244;-62
2023/10/16 07:38:23;;;;;;;1.20;1.20;;;5.60;99.90;;;;;;5093145;28;20594;-63
2023/10/16 07:40:59;;;;;;;0.30;0.20;;;6.10;99.90;;;;;;5093111;28;20511;-62
2023/10/16 07:43:27;;;;;;;0.40;0.40;;;6.90;99.90;;;;;;5093071;28;20163;-62
2023/10/16 07:48:52;;;;;;;0.30;0.30;;;8.60;99.90;;;;;;5093492;28;20404;-63
2023/10/16 07:51:21;;;;;;;0.30;0.30;;;9.60;99.90;;;;;;5092955;28;20899;-63
2023/10/16 07:53:50;;;;;;;0.30;0.30;;;10.40;99.90;;;;;;5092847;28;20463;-62
2023/10/16 07:56:25;;;;;;;0.67;0.53;;;11.00;99.90;;;;;;5092931;28;20431;-64
2023/10/16 07:58:56;;;;;;;0.30;0.30;;;11.80;99.90;;;;;;5093444;28;20376;-62
2023/10/16 08:04:07;;;;;;;0.30;0.30;;;13.50;97.40;;;;;;5072762;28;20792;-62
2023/10/16 08:06:39;;;;;;;0.50;0.50;;;14.20;96.80;;;;;;5072458;28;20451;-62
2023/10/16 08:11:58;;;;;;;1.23;0.93;;;14.90;93.00;;;;;;5072790;28;20393;-62
2023/10/16 08:14:31;;;;;;;0.30;0.30;;;15.20;92.00;;;;;;5054397;28;20814;-63
2023/10/16 08:17:14;;;;;;;0.30;0.20;;;15.40;91.80;;;;;;5073064;28;20432;-62
2023/10/16 08:19:43;;;;;;;0.30;0.20;;;15.60;91.20;;;;;;5073043;28;20643;-63
2023/10/16 08:22:13;;;;;;;0.30;0.30;;;15.90;90.40;;;;;;5073981;28;20419;-62
2023/10/16 08:24:43;;;;;;;0.50;0.40;;;16.60;91.00;;;;;;5075724;28;20469;-61
2023/10/16 08:27:19;;;;;;;0.30;0.23;;;17.20;86.90;;;;;;5075795;28;20435;-63
2023/10/16 08:29:59;;;;;;;0.30;0.30;;;17.40;86.00;;;;;;5076264;28;20439;-61
2023/10/16 08:35:17;;;;;;;0.30;0.30;;;17.90;84.90;;;;;;5075545;28;20427;-62
2023/10/16 08:37:43;;;;;;;0.70;0.70;;;18.10;84.40;;;;;;5076079;28;20444;-62
2023/10/16 08:40:19;;;;;;;0.30;0.27;;;18.20;83.40;;;;;;5075893;28;20427;-62
2023/10/16 08:43:03;;;;;;;0.30;0.27;;;18.30;82.40;;;;;;5083234;28;20504;-62
2023/10/16 08:45:29;;;;;;;0.30;0.30;;;18.30;82.80;;;;;;5095000;28;20412;-63
2023/10/16 08:47:57;;;;;;;0.30;0.30;;;18.40;82.70;;;;;;5077403;28;20437;-63
2023/10/16 08:50:32;;;;;;;0.40;0.30;;;18.50;82.40;;;;;;5080528;28;20423;-62
2023/10/16 08:53:05;;;;;;;0.30;0.30;;;18.30;81.30;;;;;;5075844;28;20423;-63
2023/10/16 08:55:32;;;;;;;0.30;0.30;;;18.10;82.00;;;;;;5075378;28;20398;-62
2023/10/16 08:57:57;;;;;;;0.30;0.30;;;17.80;82.20;;;;;;5076588;28;20522;-65
2023/10/16 09:00:30;;;;;;;0.40;0.40;;;17.40;82.00;;;;;;5076862;28;20543;-62
2023/10/16 09:03:00;;;;;;;1.67;1.23;;;17.40;84.10;;;;;;5095572;28;20180;-63
2023/10/16 09:05:26;;;;;;;0.30;0.27;;;17.50;83.00;;;;;;5094740;28;20458;-62
2023/10/16 09:07:51;;;;;;;0.30;0.30;;;17.50;82.90;;;;;;5095683;28;20384;-63
2023/10/16 09:10:21;;;;;;;0.30;0.30;;;17.70;83.30;;;;;;5095482;28;20414;-62
2023/10/16 09:13:13;;;;;;;0.40;0.40;;;17.60;83.00;;;;;;5095334;28;20530;-62
2023/10/16 09:15:45;;;;;;;0.30;0.20;;;17.70;83.60;;;;;;5069879;28;20453;-62
2023/10/16 09:18:14;;;;;;;0.30;0.30;;;17.90;83.10;;;;;;5074984;28;20533;-62
2023/10/16 09:20:43;;;;;;;0.30;0.30;;;18.00;82.50;;;;;;5074978;28;20516;-62
2023/10/16 09:23:14;;;;;;;0.30;0.30;;;18.10;82.80;;;;;;5075223;28;20430;-62
2023/10/16 09:25:47;;;;;;;0.30;0.27;;;18.30;82.30;;;;;;5074489;28;20421;-63
2023/10/16 09:28:24;;;;;;;0.60;0.60;;;18.40;82.00;;;;;;5088070;28;20414;-62
2023/10/16 09:30:50;;;;;;;0.30;0.20;;;18.50;81.30;;;;;;5077082;28;20395;-63
2023/10/16 09:33:17;;;;;;;0.30;0.20;;;18.50;81.00;;;;;;5094973;28;20874;-62
2023/10/16 09:35:45;;;;;;;0.40;0.30;;;18.60;81.80;;;;;;5094483;28;20793;-62
2023/10/16 09:38:18;;;;;;;0.30;0.30;;;18.60;81.30;;;;;;5095033;28;20443;-62
2023/10/16 09:43:48;;;;;;;0.30;0.20;;;18.60;79.60;;;;;;5095157;28;20901;-62
2023/10/16 09:46:48;;;;;;;0.30;0.20;;;18.10;80.40;;;;;;5094765;28;20418;-61
2023/10/16 09:49:21;;;;;;;0.30;0.30;;;18.10;81.00;;;;;;5094835;28;20533;-61
2023/10/16 09:51:47;;;;;;;0.30;0.20;;;18.20;80.20;;;;;;5094891;28;20407;-62
2023/10/16 09:54:14;;;;;;;0.30;0.30;;;18.10;80.90;;;;;;5082006;28;20482;-61
2023/10/16 09:56:44;;;;;;;0.30;0.27;;;18.20;80.70;;;;;;5074158;28;20451;-61
2023/10/16 09:59:22;;;;;;;0.50;0.33;;;18.30;80.30;;;;;;5075412;28;20394;-61
2023/10/16 10:01:51;;;;;;;0.50;0.50;;;18.60;80.30;;;;;;5075952;28;20419;-61
2023/10/16 10:04:19;;;;;;;0.40;0.40;;;18.60;79.30;;;;;;5073749;28;20412;-61
2023/10/16 10:06:54;;;;;;;0.40;0.40;;;18.70;78.90;;;;;;5073996;28;20529;-61
2023/10/16 10:09:31;;;;;;;0.30;0.30;;;18.60;79.80;;;;;;5056515;28;20411;-60
2023/10/16 10:12:22;;;;;;;0.30;0.30;;;18.60;80.40;;;;;;5073987;28;20407;-60
2023/10/16 10:15:12;;;;;;;0.50;0.50;;;18.60;80.20;;;;;;5086469;28;20927;-60
2023/10/16 10:17:40;;;;;;;0.30;0.20;;;18.80;80.90;;;;;;5093595;28;20449;-62
2023/10/16 10:20:24;;;;;;;0.83;0.83;;;18.70;80.70;;;;;;5094209;28;20981;-61
2023/10/16 10:22:53;;;;;;;0.30;0.20;;;18.50;80.80;;;;;;5084805;28;20509;-60
2023/10/16 10:25:36;;;;;;;0.30;0.20;;;18.20;81.90;;;;;;5091932;28;20510;-60
2023/10/16 10:28:11;;;;;;;0.30;0.20;;;18.40;82.70;;;;;;5074653;28;20407;-64
2023/10/16 10:30:45;;;;;;;0.30;0.30;;;18.60;81.30;;;;;;5091857;28;20502;-63
2023/10/16 10:33:37;;;;;;;0.37;0.37;;;18.90;80.30;;;;;;5094000;28;20424;-63
2023/10/16 10:36:34;;;;;;;0.40;0.40;;;19.00;80.90;;;;;;5083902;28;20436;-64
2023/10/16 10:39:22;;;;;;;0.30;0.30;;;19.00;81.30;;;;;;5073794;28;20511;-64
2023/10/16 10:41:54;;;;;;;0.40;0.40;;;18.80;81.30;;;;;;5091667;28;20830;-63
2023/10/16 10:44:30;;;;;;;0.40;0.40;;;18.70;80.80;;;;;;5084245;28;20411;-64
2023/10/16 10:46:57;;;;;;;0.30;0.20;;;18.60;80.60;;;;;;5073532;28;20510;-62
2023/10/16 10:49:33;;;;;;;0.30;0.20;;;18.70;82.60;;;;;;5092306;28;20418;-64
2023/10/16 10:52:05;;;;;;;0.40;0.30;;;18.80;80.60;;;;;;5093788;28;20388;-63
2023/10/16 10:54:31;;;;;;;0.30;0.30;;;18.70;82.50;;;;;;5074877;28;21043;-64
2023/10/16 10:57:07;;;;;;;0.30;0.20;;;18.30;81.70;;;;;;5081157;28;20469;-64
2023/10/16 10:59:40;;;;;;;0.30;0.20;;;17.80;75.60;;;;;;5073128;28;20406;-63
2023/10/16 11:02:21;;;;;;;0.30;0.20;;;17.50;75.40;;;;;;5073637;28;20416;-62
2023/10/16 11:04:53;;;;;;;0.30;0.30;;;16.90;75.20;;;;;;5072718;28;20398;-64
2023/10/16 11:07:29;;;;;;;0.30;0.30;;;16.10;75.30;;;;;;5073244;28;20509;-62
2023/10/16 11:09:57;;;;;;;0.40;0.40;;;15.50;77.30;;;;;;5073453;28;20417;-62
2023/10/16 11:12:26;;;;;;;0.30;0.30;;;15.10;78.10;;;;;;5073086;28;20921;-63
2023/10/16 11:14:53;;;;;;;0.30;0.30;;;14.70;79.00;;;;;;5073100;28;20440;-65
2023/10/16 11:17:32;;;;;;;0.30;0.20;;;14.30;80.30;;;;;;5073247;28;20462;-64
2023/10/16 11:20:11;;;;;;;0.30;0.30;;;14.00;81.70;;;;;;5055754;28;20443;-62
2023/10/16 11:22:43;;;;;;;0.40;0.40;;;13.70;82.50;;;;;;5079267;28;20546;-63
2023/10/16 11:25:12;;;;;;;0.30;0.30;;;13.50;82.80;;;;;;5092741;28;20452;-61
2023/10/16 11:27:41;;;;;;;0.30;0.30;;;13.40;83.80;;;;;;5093518;28;20744;-63
2023/10/16 11:30:18;;;;;;;0.30;0.30;;;13.20;84.00;;;;;;5093366;28;20420;-62
2023/10/16 11:32:47;;;;;;;0.30;0.30;;;13.10;84.30;;;;;;5093092;28;20507;-64
2023/10/16 11:35:14;;;;;;;0.30;0.30;;;13.00;83.80;;;;;;5092657;28;20432;-62
2023/10/16 11:37:43;;;;;;;0.37;0.37;;;12.90;84.80;;;;;;5087285;28;20456;-64
2023/10/16 11:40:18;;;;;;;0.30;0.30;;;12.90;86.20;;;;;;5073109;28;20436;-62
2023/10/16 11:42:52;;;;;;;0.30;0.30;;;12.80;82.50;;;;;;5072827;28;20435;-64
2023/10/16 11:45:20;;;;;;;0.30;0.30;;;12.80;81.60;;;;;;5072161;28;20461;-62
2023/10/16 11:48:18;;;;;;;0.30;0.20;;;12.70;84.30;;;;;;5073047;28;20471;-63
2023/10/16 11:50:39;;;;;;;0.30;0.30;;;12.70;84.00;;;;;;5075671;28;20786;-63
2023/10/16 11:53:07;;;;;;;0.30;0.30;;;12.60;82.80;;;;;;5092962;28;20513;-62
2023/10/16 11:55:36;;;;;;;0.30;0.30;;;12.60;81.50;;;;;;5073007;28;20453;-63
2023/10/16 11:58:03;;;;;;;0.30;0.30;;;12.60;82.00;;;;;;5076623;28;20496;-62
2023/10/16 12:00:31;;;;;;;0.30;0.30;;;12.70;82.90;;;;;;5076543;28;20412;-63
2023/10/16 12:02:56;;;;;;;0.30;0.30;;;12.70;82.70;;;;;;5076981;28;20424;-63
2023/10/16 12:05:26;;;;;;;0.30;0.30;;;12.60;82.90;;;;;;5075709;28;20455;-63
2023/10/16 12:07:52;;;;;;;0.37;0.37;;;12.70;82.60;;;;;;5076904;28;20211;-64
2023/10/16 12:10:18;;;;;;;0.30;0.30;;;12.80;83.50;;;;;;5076500;28;20412;-63
2023/10/16 12:12:44;;;;;;;0.30;0.30;;;12.90;84.10;;;;;;5076391;28;20421;-63
2023/10/16 12:15:12;;;;;;;0.30;0.30;;;13.00;85.30;;;;;;5075784;28;20212;-63
2023/10/16 12:17:38;;;;;;;0.50;0.50;;;13.00;84.40;;;;;;5076350;28;20445;-64
2023/10/16 12:20:11;;;;;;;0.30;0.30;;;13.00;84.70;;;;;;5079787;28;20478;-62
2023/10/16 12:22:39;;;;;;;0.30;0.20;;;13.00;84.80;;;;;;5096612;28;20168;-65
2023/10/16 12:25:09;;;;;;;0.30;0.30;;;13.00;85.00;;;;;;5095870;28;20432;-62
2023/10/16 12:27:36;;;;;;;0.30;0.30;;;13.00;85.80;;;;;;5096516;28;20421;-62
2023/10/16 12:30:03;;;;;;;0.30;0.30;;;13.00;85.80;;;;;;5096267;28;20903;-62
2023/10/16 12:32:29;;;;;;;0.40;0.40;;;13.00;85.50;;;;;;5080945;28;20457;-63
2023/10/16 12:35:00;;;;;;;0.30;0.30;;;13.00;84.70;;;;;;5075420;28;20440;-62
2023/10/16 12:37:27;;;;;;;0.30;0.30;;;13.00;85.00;;;;;;5075956;28;20451;-62
2023/10/16 12:39:54;;;;;;;0.30;0.30;;;13.10;84.70;;;;;;5080180;28;20429;-63
2023/10/16 12:42:20;;;;;;;0.30;0.30;;;13.10;85.00;;;;;;5079259;28;20426;-63
2023/10/16 12:44:46;;;;;;;0.30;0.30;;;13.10;85.90;;;;;;5075306;28;20906;-61
2023/10/16 12:47:13;;;;;;;0.30;0.30;;;13.20;86.50;;;;;;5075709;28;20408;-61
2023/10/16 12:49:38;;;;;;;0.30;0.30;;;13.20;86.00;;;;;;5075603;28;20178;-62
2023/10/16 12:52:05;;;;;;;0.30;0.27;;;13.10;84.80;;;;;;5075503;28;20408;-62
2023/10/16 12:54:31;;;;;;;0.30;0.30;;;13.10;85.10;;;;;;5079378;28;20257;-62
2023/10/16 12:56:57;;;;;;;0.30;0.30;;;13.10;85.00;;;;;;5095196;28;20552;-62
2023/10/16 12:59:25;;;;;;;0.30;0.30;;;13.10;85.00;;;;;;5095931;28;20205;-62
2023/10/16 13:01:52;;;;;;;0.30;0.30;;;13.10;84.20;;;;;;5077824;28;20936;-61
2023/10/16 13:04:18;;;;;;;0.30;0.30;;;13.00;85.60;;;;;;5093965;28;20424;-62
2023/10/16 13:06:44;;;;;;;0.30;0.30;;;13.00;86.40;;;;;;5076931;28;20481;-61
2023/10/16 13:09:17;;;;;;;0.30;0.30;;;13.10;86.70;;;;;;5091382;28;20431;-62
2023/10/16 13:11:44;;;;;;;0.30;0.30;;;13.20;86.20;;;;;;5075107;28;20903;-61
2023/10/16 13:14:13;;;;;;;0.30;0.30;;;13.20;85.80;;;;;;5074832;28;20823;-63
2023/10/16 13:16:40;;;;;;;0.30;0.30;;;13.30;84.90;;;;;;5084432;28;20440;-61
2023/10/16 13:19:09;;;;;;;0.37;0.37;;;13.30;85.60;;;;;;5094966;28;20421;-62
2023/10/16 13:21:38;;;;;;;0.43;0.43;;;13.30;85.70;;;;;;5095145;28;20414;-62
2023/10/16 13:24:19;;;;;;;0.30;0.30;;;13.20;85.60;;;;;;5094435;28;20421;-62
2023/10/16 13:26:47;;;;;;;0.33;0.33;;;13.20;85.80;;;;;;5094766;28;20486;-62
2023/10/16 13:29:16;;;;;;;0.30;0.30;;;13.20;86.20;;;;;;5095224;28;20394;-64
2023/10/16 13:31:46;;;;;;;0.30;0.30;;;13.20;86.10;;;;;;5088077;28;20426;-62
2023/10/16 13:34:15;;;;;;;0.30;0.20;;;13.10;86.20;;;;;;5074567;28;20414;-64
2023/10/16 13:36:56;;;;;;;0.30;0.30;;;13.10;85.90;;;;;;5074363;28;20798;-63
2023/10/16 13:39:25;;;;;;;0.30;0.30;;;13.00;85.90;;;;;;5074489;28;20415;-64
2023/10/16 13:41:51;;;;;;;0.30;0.30;;;13.00;85.50;;;;;;5074461;28;20916;-63
2023/10/16 13:44:24;;;;;;;0.30;0.20;;;13.00;84.20;;;;;;5074437;28;20487;-63
2023/10/16 13:46:51;;;;;;;0.30;0.30;;;13.00;84.20;;;;;;5066479;28;20490;-62
2023/10/16 13:49:18;;;;;;;0.30;0.30;;;12.90;84.10;;;;;;5094944;28;20474;-64
2023/10/16 13:51:44;;;;;;;0.30;0.30;;;13.00;84.10;;;;;;5094903;28;20514;-62
2023/10/16 13:54:12;;;;;;;0.50;0.40;;;12.90;84.40;;;;;;5094515;28;20772;-62
2023/10/16 13:56:39;;;;;;;0.30;0.30;;;12.90;84.30;;;;;;5094482;28;20955;-63
2023/10/16 13:59:06;;;;;;;0.30;0.30;;;13.00;83.60;;;;;;5094515;28;20499;-64
2023/10/16 14:01:43;;;;;;;0.30;0.30;;;13.00;83.50;;;;;;5094189;28;20433;-61
2023/10/16 14:04:16;;;;;;;0.30;0.30;;;13.00;82.70;;;;;;5094102;28;20429;-63
2023/10/16 14:06:52;;;;;;;0.30;0.30;;;13.00;83.10;;;;;;5094209;28;20448;-62
2023/10/16 14:09:19;;;;;;;0.30;0.30;;;13.00;83.20;;;;;;5090502;28;20422;-64
2023/10/16 14:11:49;;;;;;;0.30;0.20;;;13.10;83.50;;;;;;5074078;28;20764;-62
2023/10/16 14:14:18;;;;;;;0.30;0.30;;;13.10;81.00;;;;;;5073499;28;20412;-64
2023/10/16 14:17:02;;;;;;;0.30;0.30;;;13.10;80.80;;;;;;5073724;28;20461;-62
2023/10/16 14:19:32;;;;;;;0.30;0.30;;;13.10;81.60;;;;;;5074095;28;20417;-63
2023/10/16 14:21:57;;;;;;;0.40;0.40;;;13.10;81.10;;;;;;5055754;28;20497;-62
2023/10/16 14:24:25;;;;;;;0.30;0.30;;;13.10;81.60;;;;;;5073745;28;20868;-64
2023/10/16 14:26:54;;;;;;;0.30;0.30;;;13.10;83.10;;;;;;5081609;28;20563;-62
2023/10/16 14:29:31;;;;;;;0.40;0.40;;;13.10;82.00;;;;;;5094071;28;20413;-63
2023/10/16 14:31:57;;;;;;;0.30;0.30;;;13.00;82.60;;;;;;5076246;28;20459;-62
2023/10/16 14:34:25;;;;;;;0.30;0.30;;;13.00;82.90;;;;;;5093651;28;20436;-63
2023/10/16 14:36:54;;;;;;;0.50;0.50;;;12.90;82.40;;;;;;5093670;28;20440;-62
2023/10/16 14:39:27;;;;;;;0.30;0.30;;;12.90;83.30;;;;;;5093819;28;20897;-63
2023/10/16 14:41:54;;;;;;;0.30;0.30;;;12.90;83.40;;;;;;5083910;28;20930;-63
2023/10/16 14:44:19;;;;;;;0.50;0.40;;;12.90;83.30;;;;;;5073054;28;20421;-63
2023/10/16 14:46:45;;;;;;;0.30;0.30;;;12.90;83.00;;;;;;5073357;28;20493;-62
2023/10/16 14:49:10;;;;;;;0.30;0.30;;;12.90;83.30;;;;;;5074161;28;20168;-63
2023/10/16 14:51:40;;;;;;;0.40;0.40;;;12.90;84.00;;;;;;5073268;28;20620;-61
2023/10/16 14:54:13;;;;;;;0.30;0.23;;;12.80;84.80;;;;;;5073056;28;20298;-63
2023/10/16 14:56:39;;;;;;;0.30;0.30;;;12.80;83.90;;;;;;5092200;28;20973;-62
2023/10/16 14:59:09;;;;;;;0.30;0.30;;;12.70;84.10;;;;;;5093415;28;20444;-64
2023/10/16 15:01:36;;;;;;;0.30;0.30;;;12.70;84.30;;;;;;5093999;28;20758;-61
2023/10/16 15:04:03;;;;;;;0.30;0.30;;;12.70;84.00;;;;;;5093005;28;20469;-63
2023/10/16 15:06:29;;;;;;;0.30;0.30;;;12.60;84.40;;;;;;5093227;28;20519;-62
2023/10/16 15:08:57;;;;;;;0.30;0.30;;;12.60;84.80;;;;;;5093383;28;20568;-62
2023/10/16 15:11:26;;;;;;;0.30;0.20;;;12.50;84.20;;;;;;5092981;28;20763;-64
2023/10/16 15:13:52;;;;;;;0.33;0.33;;;12.50;84.30;;;;;;5093109;28;20473;-63
2023/10/16 15:16:18;;;;;;;0.30;0.30;;;12.50;84.00;;;;;;5093205;28;20500;-62
2023/10/16 15:18:44;;;;;;;0.40;0.40;;;12.50;84.40;;;;;;5081124;28;20448;-64
2023/10/16 15:21:13;;;;;;;0.80;0.57;;;12.40;84.80;;;;;;5074692;28;20428;-69
2023/10/16 15:23:38;;;;;;;0.30;0.30;;;12.40;84.90;;;;;;5077230;28;20432;-64
2023/10/16 15:26:05;;;;;;;0.30;0.30;;;12.40;84.80;;;;;;5073546;28;20768;-63
2023/10/16 15:28:31;;;;;;;0.30;0.30;;;12.40;85.10;;;;;;5079263;28;20185;-64
2023/10/16 15:30:57;;;;;;;0.30;0.30;;;12.40;85.20;;;;;;5090581;28;20408;-64
2023/10/16 15:33:26;;;;;;;0.30;0.30;;;12.40;85.30;;;;;;5095521;28;20410;-64
2023/10/16 15:35:56;;;;;;;0.30;0.30;;;12.30;85.20;;;;;;5081018;28;20453;-63
2023/10/16 15:38:28;;;;;;;0.30;0.30;;;12.30;85.60;;;;;;5081390;28;20852;-63
2023/10/16 15:40:55;;;;;;;0.30;0.30;;;12.30;85.40;;;;;;5086141;28;20435;-62
2023/10/16 15:43:21;;;;;;;0.40;0.40;;;12.20;85.80;;;;;;5088909;28;20425;-63
2023/10/16 15:45:47;;;;;;;0.30;0.30;;;12.20;85.40;;;;;;5078509;28;20946;-62
2023/10/16 15:48:13;;;;;;;0.30;0.20;;;12.10;85.60;;;;;;5096418;28;20419;-62
2023/10/16 15:50:44;;;;;;;0.30;0.30;;;12.10;85.60;;;;;;5093532;28;20180;-64
2023/10/16 15:53:10;;;;;;;0.30;0.30;;;12.00;85.70;;;;;;5072838;28;20430;-62
2023/10/16 15:55:36;;;;;;;0.30;0.30;;;11.90;85.80;;;;;;5083297;28;20455;-62
2023/10/16 15:58:02;;;;;;;0.30;0.30;;;11.90;86.20;;;;;;5089945;28;20536;-63
2023/10/16 16:00:30;;;;;;;0.40;0.40;;;11.90;85.80;;;;;;5079552;28;20426;-62
2023/10/16 16:02:57;;;;;;;0.30;0.20;;;11.90;85.60;;;;;;5081477;28;20445;-63
2023/10/16 16:05:23;;;;;;;0.30;0.30;;;11.80;85.70;;;;;;5093654;28;20441;-64
2023/10/16 16:07:52;;;;;;;0.30;0.20;;;11.70;85.60;;;;;;5075666;28;20451;-62
2023/10/16 16:10:18;;;;;;;0.30;0.30;;;11.70;85.90;;;;;;5087251;28;20789;-64
2023/10/16 16:12:45;;;;;;;0.40;0.40;;;11.70;86.00;;;;;;5077702;28;20545;-63
2023/10/16 16:15:11;;;;;;;0.30;0.30;;;11.50;86.40;;;;;;5089768;28;20443;-63
2023/10/16 16:17:37;;;;;;;0.30;0.30;;;11.50;87.00;;;;;;5081386;28;20194;-62
2023/10/16 16:20:04;;;;;;;1.25;1.25;;;11.40;87.10;;;;;;5083311;28;20176;-64
2023/10/16 16:22:31;;;;;;;0.30;0.30;;;11.30;87.30;;;;;;5096159;28;20508;-66
2023/10/16 16:24:58;;;;;;;0.30;0.28;;;11.30;87.80;;;;;;5095877;28;20539;-68
2023/10/16 16:27:23;;;;;;;0.30;0.30;;;11.20;87.90;;;;;;5094437;28;20566;-62
2023/10/16 16:29:49;;;;;;;0.30;0.30;;;11.10;88.30;;;;;;5077670;28;20193;-63
2023/10/16 16:32:17;;;;;;;0.30;0.30;;;11.00;88.70;;;;;;5076531;28;20181;-64
2023/10/16 16:34:44;;;;;;;0.32;0.32;;;11.00;88.80;;;;;;5077640;28;20185;-65
2023/10/16 16:37:11;;;;;;;0.35;0.35;;;10.90;89.10;;;;;;5075653;28;20209;-64
2023/10/16 16:39:37;;;;;;;0.30;0.30;;;10.80;89.30;;;;;;5076174;28;20264;-64
2023/10/16 16:42:04;;;;;;;0.35;0.35;;;10.80;89.50;;;;;;5057111;28;20200;-65
2023/10/16 16:44:30;;;;;;;0.30;0.30;;;10.70;89.70;;;;;;5075038;28;20715;-64
2023/10/16 16:46:58;;;;;;;0.30;0.30;;;10.70;90.00;;;;;;5085039;28;20229;-65
2023/10/16 16:49:29;;;;;;;0.30;0.30;;;10.70;90.10;;;;;;5085857;28;20200;-65
2023/10/16 16:52:00;;;;;;;0.30;0.30;;;10.60;90.10;;;;;;5076294;28;20209;-63
2023/10/16 16:54:28;;;;;;;0.30;0.30;;;10.60;90.70;;;;;;5086498;28;20165;-65
2023/10/16 16:56:54;;;;;;;0.30;0.30;;;10.50;90.60;;;;;;5095024;28;20204;-63
2023/10/16 16:59:20;;;;;;;0.30;0.30;;;10.50;90.50;;;;;;5085293;28;20179;-64
2023/10/16 17:01:47;;;;;;;0.30;0.30;;;10.50;90.50;;;;;;5076308;28;20173;-64
2023/10/16 17:04:14;;;;;;;0.30;0.30;;;10.40;90.70;;;;;;5093946;28;20172;-65
2023/10/16 17:06:42;;;;;;;0.30;0.30;;;10.40;90.80;;;;;;5058842;28;20300;-66
2023/10/16 17:09:17;;;;;;;1.58;1.48;;;10.40;91.00;;;;;;5083884;28;20171;-61
2023/10/16 17:11:44;;;;;;;0.55;0.55;;;10.30;91.10;;;;;;5074876;28;20188;-66
2023/10/16 17:14:11;;;;;;;0.30;0.30;;;10.30;91.10;;;;;;5074633;28;20176;-62
2023/10/16 17:16:37;;;;;;;0.30;0.30;;;10.20;91.20;;;;;;5087327;28;20679;-63
2023/10/16 17:19:04;;;;;;;0.30;0.30;;;10.20;91.20;;;;;;5092976;28;20256;-63
2023/10/16 17:21:32;;;;;;;0.30;0.30;;;10.20;91.50;;;;;;5086827;28;20272;-64
2023/10/16 17:24:01;;;;;;;0.30;0.30;;;10.20;91.60;;;;;;5064912;28;20176;-61
2023/10/16 17:26:29;;;;;;;0.30;0.30;;;10.10;91.50;;;;;;5087882;28;20275;-62
2023/10/16 17:28:56;;;;;;;0.40;0.40;;;10.10;91.90;;;;;;5080266;28;20177;-61
2023/10/16 17:31:24;;;;;;;0.30;0.30;;;10.10;91.90;;;;;;5078468;28;20183;-60
2023/10/16 17:33:50;;;;;;;0.30;0.30;;;10.10;92.10;;;;;;5079108;28;20189;-62
2023/10/16 17:36:16;;;;;;;0.30;0.30;;;10.00;92.20;;;;;;5094799;28;20188;-62
2023/10/16 17:38:41;;;;;;;0.40;0.40;;;10.00;92.20;;;;;;5086956;28;20200;-61
2023/10/16 17:41:07;;;;;;;0.40;0.40;;;10.00;92.30;;;;;;5076920;28;20183;-62
2023/10/16 17:43:33;;;;;;;0.30;0.30;;;9.90;93.20;;;;;;5087133;28;20176;-62
2023/10/16 17:45:58;;;;;;;0.30;0.30;;;9.90;93.30;;;;;;5077878;28;20224;-63
2023/10/16 17:48:25;;;;;;;0.30;0.20;;;9.80;93.40;;;;;;5080797;28;20265;-63
2023/10/16 17:50:51;;;;;;;0.30;0.30;;;9.70;93.50;;;;;;5094708;28;20182;-62
2023/10/16 17:53:17;;;;;;;0.30;0.30;;;9.70;93.70;;;;;;5094323;28;20515;-65
2023/10/16 17:55:42;;;;;;;0.30;0.30;;;9.70;93.90;;;;;;5094003;28;20187;-64
2023/10/16 17:58:08;;;;;;;0.40;0.40;;;9.60;94.10;;;;;;5093913;28;20661;-64
2023/10/16 18:00:39;;;;;;;0.40;0.40;;;9.50;94.20;;;;;;5092760;28;20270;-62
2023/10/16 18:03:06;;;;;;;0.30;0.30;;;9.50;94.50;;;;;;5087162;28;20165;-63
2023/10/16 18:05:33;;;;;;;0.30;0.30;;;9.50;94.60;;;;;;5073801;28;20551;-64
2023/10/16 18:07:59;;;;;;;0.30;0.30;;;9.40;95.00;;;;;;5074133;28;20176;-64
2023/10/16 18:10:27;;;;;;;0.30;0.28;;;9.40;95.50;;;;;;5081128;28;20630;-63
2023/10/16 18:12:53;;;;;;;0.30;0.30;;;9.40;95.40;;;;;;5093399;28;20259;-64
2023/10/16 18:15:20;;;;;;;0.30;0.30;;;9.40;95.50;;;;;;5089328;28;20224;-64
2023/10/16 18:17:48;;;;;;;0.30;0.30;;;9.30;95.50;;;;;;5093869;28;20198;-63
2023/10/16 18:20:15;;;;;;;0.40;0.40;;;9.30;95.80;;;;;;5067429;28;20210;-61
2023/10/16 18:22:41;;;;;;;0.40;0.40;;;9.20;95.90;;;;;;5081708;28;20168;-64
2023/10/16 18:25:08;;;;;;;0.43;0.43;;;9.20;96.10;;;;;;5064921;28;20188;-62
2023/10/16 18:27:34;;;;;;;1.52;0.77;;;9.20;96.50;;;;;;5082906;28;20210;-63
2023/10/16 18:30:02;;;;;;;0.50;0.50;;;9.20;96.90;;;;;;5064087;28;20207;-62
2023/10/16 18:32:28;;;;;;;0.40;0.40;;;9.10;96.90;;;;;;5083668;28;20176;-62
2023/10/16 18:34:54;;;;;;;0.40;0.40;;;9.10;97.20;;;;;;5082273;28;20184;-63
2023/10/16 18:37:22;;;;;;;0.53;0.53;;;9.00;97.30;;;;;;5084200;28;20199;-63
2023/10/16 18:39:51;;;;;;;0.40;0.40;;;9.00;97.50;;;;;;5083428;28;20165;-62
2023/10/16 18:42:16;;;;;;;0.30;0.30;;;9.00;97.80;;;;;;5082451;28;20580;-65
2023/10/16 18:44:42;;;;;;;0.40;0.40;;;9.00;97.90;;;;;;5082198;28;20634;-63
2023/10/16 18:47:08;;;;;;;0.30;0.30;;;9.00;98.00;;;;;;5083642;28;20168;-63
2023/10/16 18:49:35;;;;;;;0.30;0.30;;;9.00;98.10;;;;;;5084018;28;20173;-63
2023/10/16 18:52:01;;;;;;;0.30;0.30;;;8.90;98.10;;;;;;5064005;28;20178;-65
2023/10/16 18:54:27;;;;;;;0.40;0.40;;;8.90;98.40;;;;;;5082946;28;20716;-62
2023/10/16 18:56:52;;;;;;;0.30;0.30;;;8.90;98.50;;;;;;5076984;28;20204;-64
2023/10/16 18:59:20;;;;;;;0.30;0.30;;;8.80;98.50;;;;;;5072071;28;20410;-65
2023/10/16 19:01:46;;;;;;;0.30;0.30;;;8.80;98.60;;;;;;5074481;28;20203;-62
2023/10/16 19:04:11;;;;;;;0.82;0.82;;;8.80;98.70;;;;;;5084819;28;20533;-63
2023/10/16 19:06:38;;;;;;;0.30;0.30;;;8.80;99.00;;;;;;5084258;28;20196;-66
2023/10/16 19:09:10;;;;;;;0.70;0.70;;;8.70;99.30;;;;;;5073234;28;20657;-62